Time;durP1;ratioP1;P1;durP2;ratioP2;P2;SDS_P1;SDS_P2;PMS_P1;PMS_P2;Temp;Humidity;BMP_temperature;BMP_pressure;BME280_temperature;BME280_humidity;BME280_pressure;Samples;Min_cycle;Max_cycle;Signal;HPM_P1;HPM_P2
2021/06/04 00:02:15;;;;;;;1.27;0.80;;;;;;;23.66;45.04;101114.30;1940213;73;21047;-54
2021/06/04 00:04:43;;;;;;;3.08;0.90;;;;;;;23.66;45.04;101114.30;1947338;73;21627;-52
2021/06/04 00:07:11;;;;;;;1.00;0.90;;;;;;;23.65;45.06;101113.97;1943228;73;21117;-53
2021/06/04 00:09:40;;;;;;;3.42;1.00;;;;;;;23.64;45.06;101103.69;1930083;73;21036;-53
2021/06/04 00:12:09;;;;;;;1.75;0.90;;;;;;;23.64;45.04;101106.38;1939587;73;21172;-51
2021/06/04 00:14:39;;;;;;;1.57;0.70;;;;;;;23.63;45.03;101117.28;1921437;73;21079;-53
2021/06/04 00:17:10;;;;;;;1.50;1.00;;;;;;;23.63;44.99;101114.59;1925708;73;21048;-53
2021/06/04 00:19:39;;;;;;;1.17;0.82;;;;;;;23.62;44.99;101108.85;1934794;73;21149;-52
2021/06/04 00:22:09;;;;;;;1.62;0.70;;;;;;;23.61;45.01;101112.52;1931027;73;21047;-53
2021/06/04 00:24:40;;;;;;;1.02;0.90;;;;;;;23.60;45.01;101120.23;1946930;73;21039;-54
2021/06/04 00:27:09;;;;;;;0.95;0.85;;;;;;;23.60;45.03;101121.58;1934516;73;21083;-54
2021/06/04 00:29:37;;;;;;;1.25;1.00;;;;;;;23.59;45.06;101123.89;1912272;73;21051;-54
2021/06/04 00:32:06;;;;;;;2.10;1.10;;;;;;;23.58;45.10;101119.02;1931497;73;21048;-54
2021/06/04 00:34:36;;;;;;;1.50;1.00;;;;;;;23.57;45.15;101119.16;1930107;73;21082;-53
2021/06/04 00:37:05;;;;;;;2.17;1.30;;;;;;;23.56;45.19;101116.13;1940080;73;21044;-55
2021/06/04 00:39:36;;;;;;;2.70;1.27;;;;;;;23.55;45.28;101117.09;1928717;73;21051;-53
2021/06/04 00:42:19;;;;;;;2.77;1.10;;;;;;;23.53;45.31;101115.04;1946726;73;21070;-53
2021/06/04 00:44:51;;;;;;;3.17;0.98;;;;;;;23.53;45.38;101116.38;1921427;73;21039;-54
2021/06/04 00:47:19;;;;;;;2.87;1.50;;;;;;;23.52;45.42;101122.27;1946099;73;21066;-52
2021/06/04 00:49:49;;;;;;;2.12;1.37;;;;;;;23.51;45.49;101118.70;1939570;73;21125;-53
2021/06/04 00:52:21;;;;;;;2.37;1.40;;;;;;;23.50;45.57;101122.39;1935450;73;21135;-54
2021/06/04 00:54:52;;;;;;;3.90;1.27;;;;;;;23.50;45.62;101125.08;1939257;73;21168;-54
2021/06/04 00:57:20;;;;;;;2.77;0.95;;;;;;;23.49;45.64;101114.45;1947051;73;21110;-53
2021/06/04 00:59:49;;;;;;;2.12;1.30;;;;;;;23.49;45.71;101118.48;1943795;72;21124;-54
2021/06/04 01:02:20;;;;;;;1.50;1.02;;;;;;;23.48;45.74;101117.64;1924527;73;21059;-53
2021/06/04 01:04:49;;;;;;;3.40;1.30;;;;;;;23.47;45.80;101118.62;1943236;73;21565;-54
2021/06/04 01:07:32;;;;;;;2.12;1.30;;;;;;;23.47;45.83;101117.27;1929939;73;21128;-52
2021/06/04 01:10:02;;;;;;;1.92;1.17;;;;;;;23.45;45.88;101109.00;1933630;72;21095;-52
2021/06/04 01:12:53;;;;;;;2.52;1.02;;;;;;;23.44;45.92;101110.84;1944901;73;21055;-54
2021/06/04 01:15:40;;;;;;;1.50;0.95;;;;;;;23.44;45.95;101107.28;1933375;73;21078;-54
2021/06/04 01:18:17;;;;;;;1.77;1.00;;;;;;;23.42;45.96;101106.07;1934115;73;21125;-54
2021/06/04 01:20:50;;;;;;;2.47;1.12;;;;;;;23.41;45.96;101100.36;1930310;73;21188;-53
2021/06/04 01:23:33;;;;;;;1.57;1.10;;;;;;;23.41;46.02;101099.52;1944043;73;21124;-53
2021/06/04 01:26:10;;;;;;;2.80;1.03;;;;;;;23.40;46.04;101100.48;1931410;73;21082;-54
2021/06/04 01:28:46;;;;;;;4.33;1.20;;;;;;;23.40;46.05;101096.45;1934781;73;21110;-53
2021/06/04 01:31:42;;;;;;;1.37;0.90;;;;;;;23.39;46.10;101095.61;1934872;73;21075;-54
2021/06/04 01:34:13;;;;;;;1.42;1.20;;;;;;;23.38;46.14;101098.43;1928188;73;21067;-53
2021/06/04 01:36:50;;;;;;;1.10;1.00;;;;;;;23.36;46.16;101099.91;1939339;73;21035;-53
2021/06/04 01:39:36;;;;;;;2.98;1.07;;;;;;;23.37;46.20;101092.22;1952160;73;21054;-52
2021/06/04 01:42:06;;;;;;;2.60;1.35;;;;;;;23.35;46.22;101094.19;1936790;73;21070;-53
2021/06/04 01:44:46;;;;;;;2.75;1.32;;;;;;;23.34;46.22;101087.09;1928754;73;21067;-53
2021/06/04 01:47:17;;;;;;;3.08;1.27;;;;;;;23.34;46.26;101089.78;1929327;73;21133;-53
2021/06/04 01:49:48;;;;;;;1.85;1.00;;;;;;;23.34;46.30;101086.26;1943731;73;21118;-53
2021/06/04 01:52:22;;;;;;;2.12;1.10;;;;;;;23.33;46.31;101085.38;1944395;73;21133;-52
2021/06/04 01:54:58;;;;;;;1.80;1.00;;;;;;;23.33;46.30;101088.07;1933667;73;21044;-51
2021/06/04 01:57:29;;;;;;;1.85;1.00;;;;;;;23.33;46.30;101089.41;1954041;73;21093;-53
2021/06/04 01:59:59;;;;;;;1.45;1.02;;;;;;;23.31;46.32;101084.20;1937360;73;21136;-53
2021/06/04 02:02:30;;;;;;;1.98;0.95;;;;;;;23.29;46.33;101083.48;1946145;73;21055;-53
2021/06/04 02:04:58;;;;;;;1.45;0.90;;;;;;;23.30;46.34;101081.64;1935894;73;21039;-52
2021/06/04 02:07:29;;;;;;;2.05;1.00;;;;;;;23.30;46.32;101078.95;1928141;73;21191;-54
2021/06/04 02:09:59;;;;;;;2.25;1.10;;;;;;;23.29;46.33;101085.30;1925334;73;21074;-52
2021/06/04 02:12:28;;;;;;;1.65;1.10;;;;;;;23.29;46.33;101092.02;1935837;73;21067;-53
2021/06/04 02:14:59;;;;;;;2.08;1.15;;;;;;;23.28;46.33;101088.98;1929736;73;21167;-53
2021/06/04 02:17:55;;;;;;;1.52;1.07;;;;;;;23.27;46.35;101087.27;1948189;73;21135;-53
2021/06/04 02:20:28;;;;;;;2.47;1.40;;;;;;;23.27;46.34;101090.80;1936901;73;21078;-53
2021/06/04 02:23:08;;;;;;;1.90;1.10;;;;;;;23.26;46.35;101085.59;1946333;73;21687;-53
2021/06/04 02:25:51;;;;;;;2.33;0.98;;;;;;;23.26;46.39;101085.59;1947215;73;21144;-53
2021/06/04 02:28:38;;;;;;;3.17;1.15;;;;;;;23.26;46.40;101085.59;1929348;73;21046;-53
2021/06/04 02:31:12;;;;;;;1.87;0.90;;;;;;;23.24;46.41;101085.72;1937504;73;21092;-52
2021/06/04 02:33:46;;;;;;;3.87;1.05;;;;;;;23.25;46.42;101086.56;1937238;73;21055;-53
2021/06/04 02:36:22;;;;;;;2.47;1.00;;;;;;;23.23;46.42;101092.56;1939612;73;21078;-53
2021/06/04 02:38:53;;;;;;;2.45;1.00;;;;;;;23.22;46.44;101091.72;1931730;73;21087;-53
2021/06/04 02:41:33;;;;;;;2.77;1.20;;;;;;;23.22;46.45;101089.50;1918514;73;21105;-53
2021/06/04 02:44:12;;;;;;;2.40;1.02;;;;;;;23.21;46.46;101089.16;1936634;73;21070;-53
2021/06/04 02:46:46;;;;;;;2.10;1.00;;;;;;;23.20;46.48;101091.48;1917778;73;21062;-52
2021/06/04 02:49:16;;;;;;;1.25;0.80;;;;;;;23.19;46.49;101091.98;1938813;73;21263;-53
2021/06/04 02:51:53;;;;;;;1.10;0.88;;;;;;;23.19;46.51;101089.80;1927207;73;21152;-52
2021/06/04 02:54:24;;;;;;;2.98;0.85;;;;;;;23.19;46.52;101093.82;1937078;73;21070;-53
2021/06/04 02:56:58;;;;;;;2.58;1.30;;;;;;;23.18;46.53;101092.11;1936742;73;21087;-53
2021/06/04 02:59:35;;;;;;;1.90;1.02;;;;;;;23.17;46.56;101091.27;1934756;73;21129;-54
2021/06/04 03:02:06;;;;;;;1.30;0.90;;;;;;;23.17;46.58;101087.73;1925627;73;21130;-53
2021/06/04 03:04:37;;;;;;;2.80;1.02;;;;;;;23.16;46.60;101082.83;1929408;73;21078;-53
2021/06/04 03:07:08;;;;;;;1.80;1.15;;;;;;;23.13;46.63;101081.28;1948069;73;21055;-53
2021/06/04 03:09:39;;;;;;;1.57;1.30;;;;;;;23.15;46.63;101080.27;1945093;73;21105;-53
2021/06/04 03:12:10;;;;;;;1.05;0.90;;;;;;;23.15;46.66;101081.62;1922467;73;21095;-53
2021/06/04 03:14:38;;;;;;;1.25;0.80;;;;;;;23.12;46.67;101081.41;1922716;73;21078;-53
2021/06/04 03:17:09;;;;;;;0.80;0.70;;;;;;;23.12;46.67;101074.19;1946779;73;21098;-52
2021/06/04 03:19:37;;;;;;;1.32;0.80;;;;;;;23.11;46.66;101071.63;1918383;73;21066;-52
2021/06/04 03:22:17;;;;;;;1.22;0.93;;;;;;;23.10;46.67;101076.16;1933639;73;21071;-53
2021/06/04 03:24:45;;;;;;;2.05;0.90;;;;;;;23.09;46.70;101078.50;1931823;73;21074;-52
2021/06/04 03:27:16;;;;;;;1.20;0.68;;;;;;;23.09;46.68;101066.89;1940019;73;21051;-52
2021/06/04 03:29:44;;;;;;;2.35;1.05;;;;;;;23.08;46.72;101074.61;1928806;73;21039;-53
2021/06/04 03:32:14;;;;;;;2.33;0.82;;;;;;;23.07;46.75;101076.45;1946837;73;21181;-53
2021/06/04 03:34:44;;;;;;;1.75;1.20;;;;;;;23.07;46.75;101074.23;1927331;73;21094;-52
2021/06/04 03:37:13;;;;;;;2.42;1.10;;;;;;;23.07;46.76;101080.95;1925304;73;21069;-52
2021/06/04 03:39:44;;;;;;;1.67;1.32;;;;;;;23.06;46.80;101074.73;1941300;73;21153;-52
2021/06/04 03:42:21;;;;;;;4.58;1.17;;;;;;;23.06;46.83;101069.86;1947914;73;21169;-52
2021/06/04 03:44:49;;;;;;;1.30;1.00;;;;;;;23.05;46.89;101070.83;1934165;73;21137;-53
2021/06/04 03:47:18;;;;;;;1.17;0.90;;;;;;;23.05;46.92;101076.20;1930441;73;21156;-53
2021/06/04 03:49:47;;;;;;;1.72;0.93;;;;;;;23.04;46.93;101076.70;1944204;73;21126;-52
2021/06/04 03:52:17;;;;;;;1.30;0.90;;;;;;;23.03;46.94;101076.30;1918497;73;21055;-53
2021/06/04 03:54:48;;;;;;;1.87;0.90;;;;;;;23.03;46.94;101072.27;1931674;73;21075;-53
2021/06/04 03:57:19;;;;;;;2.40;0.90;;;;;;;23.04;46.99;101067.30;1919688;73;21054;-52
2021/06/04 03:59:47;;;;;;;2.52;1.10;;;;;;;23.03;46.99;101065.55;1934108;73;21227;-51
2021/06/04 04:02:18;;;;;;;2.15;1.00;;;;;;;23.03;46.99;101061.53;1937382;73;21369;-50
2021/06/04 04:04:46;;;;;;;1.92;1.00;;;;;;;23.03;47.01;101068.23;1929845;73;21523;-53
2021/06/04 04:07:15;;;;;;;1.35;0.90;;;;;;;23.03;47.04;101066.05;1931028;73;21145;-53
2021/06/04 04:09:43;;;;;;;1.25;0.90;;;;;;;23.03;47.06;101063.38;1943922;72;21184;-53
2021/06/04 04:12:12;;;;;;;1.90;1.10;;;;;;;23.02;47.10;101062.53;1944846;73;21069;-52
2021/06/04 04:14:40;;;;;;;1.60;0.95;;;;;;;23.01;47.15;101059.47;1916470;73;21059;-52
2021/06/04 04:17:08;;;;;;;2.80;0.90;;;;;;;23.00;47.16;101060.47;1923508;73;21083;-52
2021/06/04 04:19:37;;;;;;;1.12;0.90;;;;;;;23.01;47.20;101060.81;1931404;73;21200;-54
2021/06/04 04:22:05;;;;;;;0.75;0.70;;;;;;;23.01;47.21;101058.62;1924678;73;21140;-53
2021/06/04 04:24:37;;;;;;;1.90;0.85;;;;;;;23.00;47.25;101059.59;1920935;73;21066;-53
2021/06/04 04:27:06;;;;;;;2.33;0.80;;;;;;;23.00;47.29;101066.31;1933660;73;21140;-53
2021/06/04 04:29:35;;;;;;;1.20;0.90;;;;;;;22.98;47.30;101069.16;1949446;73;21187;-54
2021/06/04 04:32:06;;;;;;;1.98;0.90;;;;;;;22.97;47.31;101060.73;1937389;73;21086;-53
2021/06/04 04:34:35;;;;;;;1.27;0.93;;;;;;;22.94;47.33;101055.14;1931166;73;21072;-52
2021/06/04 04:37:04;;;;;;;0.98;0.90;;;;;;;22.93;47.34;101064.17;1933938;73;21070;-53
2021/06/04 04:39:34;;;;;;;3.00;0.80;;;;;;;22.96;47.36;101071.59;1930067;73;21191;-53
2021/06/04 04:42:05;;;;;;;1.07;0.78;;;;;;;22.96;47.37;101069.75;1944966;73;21154;-54
2021/06/04 04:44:35;;;;;;;1.35;0.90;;;;;;;22.95;47.38;101064.04;1935639;73;21075;-53
2021/06/04 04:47:06;;;;;;;1.10;0.80;;;;;;;22.95;47.41;101076.12;1942749;73;21031;-52
2021/06/04 04:49:34;;;;;;;1.72;0.78;;;;;;;22.95;47.42;101076.12;1945129;73;21176;-54
2021/06/04 04:52:03;;;;;;;0.93;0.70;;;;;;;22.94;47.46;101074.41;1943478;73;21078;-55
2021/06/04 04:54:31;;;;;;;0.90;0.70;;;;;;;22.95;47.50;101080.16;1939482;73;21616;-53
2021/06/04 04:56:59;;;;;;;1.30;0.75;;;;;;;22.94;47.53;101073.94;1926041;73;21078;-54
2021/06/04 04:59:27;;;;;;;14.13;1.52;;;;;;;22.94;47.56;101077.09;1933682;73;21043;-53
2021/06/04 05:01:56;;;;;;;3.72;0.72;;;;;;;22.93;47.61;101080.78;1940158;73;21292;-49
2021/06/04 05:04:25;;;;;;;3.00;0.70;;;;;;;22.89;47.77;101075.32;1918195;73;21066;-53
2021/06/04 05:06:53;;;;;;;3.55;0.70;;;;;;;22.83;47.86;101073.14;1917872;73;21219;-53
2021/06/04 05:09:22;;;;;;;2.42;0.57;;;;;;;22.78;47.92;101074.02;1930635;73;21147;-51
2021/06/04 05:11:50;;;;;;;2.08;0.60;;;;;;;22.71;48.02;101073.71;1924468;73;21252;-52
2021/06/04 05:14:19;;;;;;;8.40;1.10;;;;;;;22.67;48.12;101077.14;1923393;73;21188;-52
2021/06/04 05:16:48;;;;;;;3.55;1.00;;;;;;;22.62;48.22;101081.20;1939523;73;21208;-52
2021/06/04 05:19:17;;;;;;;0.75;0.60;;;;;;;22.61;48.26;101087.53;1945997;73;21604;-52
2021/06/04 05:21:47;;;;;;;3.25;0.88;;;;;;;22.59;48.30;101083.63;1928216;73;21143;-53
2021/06/04 05:24:15;;;;;;;3.70;0.60;;;;;;;22.59;48.33;101080.95;1935770;73;21074;-53
2021/06/04 05:26:44;;;;;;;1.15;0.60;;;;;;;22.60;48.37;101082.67;1912229;74;21169;-52
2021/06/04 05:29:12;;;;;;;1.05;0.70;;;;;;;22.62;48.42;101082.55;1917733;73;21161;-52
2021/06/04 05:31:41;;;;;;;1.40;0.55;;;;;;;22.64;48.43;101079.23;1940434;73;21062;-53
2021/06/04 05:34:10;;;;;;;1.60;0.72;;;;;;;22.64;48.43;101080.58;1929468;73;21133;-54
2021/06/04 05:36:42;;;;;;;3.90;0.60;;;;;;;22.66;48.46;101084.82;1945754;73;21124;-53
2021/06/04 05:39:13;;;;;;;0.78;0.78;;;;;;;22.67;48.49;101082.52;1925192;73;21050;-53
2021/06/04 05:41:44;;;;;;;1.00;0.60;;;;;;;22.69;48.53;101081.89;1927213;73;21070;-52
2021/06/04 05:44:14;;;;;;;1.40;0.50;;;;;;;22.71;48.52;101082.61;1913713;73;21074;-54
2021/06/04 05:46:47;;;;;;;1.37;0.60;;;;;;;22.73;48.58;101084.66;1926323;73;21066;-53
2021/06/04 05:49:15;;;;;;;;;;;;;;;22.74;48.60;101090.41;1933443;73;21067;-53
2021/06/04 05:51:44;;;;;;;1.85;0.50;;;;;;;22.77;48.47;101092.47;1934106;73;20129;-54
2021/06/04 05:54:12;;;;;;;0.50;0.50;;;;;;;22.78;48.47;101085.63;1918219;73;21133;-53
2021/06/04 05:56:40;;;;;;;1.57;0.70;;;;;;;22.79;48.51;101086.47;1946949;73;21173;-53
2021/06/04 05:59:10;;;;;;;1.37;0.40;;;;;;;22.80;48.56;101085.00;1922358;73;21078;-54
2021/06/04 06:01:38;;;;;;;2.02;0.60;;;;;;;22.82;48.61;101080.35;1912971;73;21160;-53
2021/06/04 06:04:07;;;;;;;0.68;0.50;;;;;;;22.84;48.59;101082.91;1941741;73;21098;-53
2021/06/04 06:06:35;;;;;;;1.50;0.50;;;;;;;22.86;48.60;101079.10;1941129;73;21120;-53
2021/06/04 06:09:12;;;;;;;2.35;0.70;;;;;;;22.87;48.63;101079.94;1935315;73;21069;-54
2021/06/04 06:11:38;;;;;;;2.62;0.60;;;;;;;22.88;48.59;101070.42;1937604;73;21511;-54
2021/06/04 06:14:09;;;;;;;1.60;0.60;;;;;;;22.91;48.56;101072.01;1945003;73;21476;-54
2021/06/04 06:16:37;;;;;;;2.52;0.50;;;;;;;22.91;48.58;101071.51;1941673;73;21677;-53
2021/06/04 06:19:07;;;;;;;1.55;0.60;;;;;;;22.93;48.61;101074.06;1912021;73;21084;-53
2021/06/04 06:21:37;;;;;;;0.50;0.50;;;;;;;22.94;48.60;101059.64;1917401;73;21075;-53
2021/06/04 06:24:06;;;;;;;0.72;0.60;;;;;;;22.95;48.61;101058.67;1928722;73;21211;-54
2021/06/04 06:26:35;;;;;;;1.02;0.60;;;;;;;22.97;48.60;101070.63;1944576;73;21058;-54
2021/06/04 06:29:05;;;;;;;1.10;0.40;;;;;;;22.97;48.63;101075.50;1937846;73;21066;-50
2021/06/04 06:31:35;;;;;;;0.62;0.55;;;;;;;22.98;48.62;101066.47;1924468;73;21110;-53
2021/06/04 06:34:05;;;;;;;0.50;0.50;;;;;;;22.99;48.62;101078.05;1930876;73;21125;-54
2021/06/04 06:36:37;;;;;;;0.80;0.62;;;;;;;23.01;48.63;101066.69;1944667;73;21161;-53
2021/06/04 06:39:08;;;;;;;2.30;0.70;;;;;;;23.01;48.54;101074.23;1926161;73;21078;-53
2021/06/04 06:41:37;;;;;;;1.87;0.65;;;;;;;23.01;48.52;101068.87;1934969;72;21086;-53
2021/06/04 06:44:05;;;;;;;1.80;0.57;;;;;;;23.02;48.54;101067.91;1944248;73;21101;-53
2021/06/04 06:46:34;;;;;;;2.08;0.80;;;;;;;23.03;48.50;101076.30;1945439;73;21054;-54
2021/06/04 06:49:03;;;;;;;1.75;0.50;;;;;;;23.03;48.44;101064.21;1927210;73;21059;-54
2021/06/04 06:51:33;;;;;;;1.50;0.70;;;;;;;23.03;48.44;101077.64;1918451;73;21083;-54
2021/06/04 06:54:02;;;;;;;2.85;0.70;;;;;;;23.04;48.42;101069.98;1924179;73;21071;-53
2021/06/04 06:56:30;;;;;;;2.87;0.90;;;;;;;23.04;48.37;101068.64;1924379;73;21036;-53
2021/06/04 06:59:00;;;;;;;1.17;0.55;;;;;;;23.05;48.42;101073.52;1935132;73;21523;-53
2021/06/04 07:01:29;;;;;;;2.08;0.70;;;;;;;23.06;48.37;101069.86;1933393;73;21141;-54
2021/06/04 07:03:59;;;;;;;0.70;0.60;;;;;;;23.07;48.35;101071.08;1932680;73;21169;-53
2021/06/04 07:06:29;;;;;;;1.32;0.70;;;;;;;23.08;48.31;101075.45;1917808;73;21184;-54
2021/06/04 07:08:58;;;;;;;1.82;0.68;;;;;;;23.09;48.32;101068.23;1931335;73;21226;-54
2021/06/04 07:11:28;;;;;;;2.50;0.70;;;;;;;23.10;48.36;101080.19;1944882;73;21160;-53
2021/06/04 07:13:58;;;;;;;1.10;0.70;;;;;;;23.12;48.38;101070.16;1944723;73;21083;-53
2021/06/04 07:16:27;;;;;;;2.15;0.70;;;;;;;23.13;48.43;101067.84;1938913;73;21125;-52
2021/06/04 07:18:55;;;;;;;1.37;0.70;;;;;;;23.16;48.49;101079.30;1943931;73;21134;-54
2021/06/04 07:21:26;;;;;;;4.28;0.70;;;;;;;23.18;48.49;101080.86;1935160;73;21039;-53
2021/06/04 07:23:56;;;;;;;1.35;0.60;;;;;;;23.21;48.53;101078.42;1915392;73;21125;-53
2021/06/04 07:26:26;;;;;;;1.32;0.60;;;;;;;23.21;48.56;101082.45;1922373;73;21589;-53
2021/06/04 07:29:00;;;;;;;1.98;0.72;;;;;;;23.23;48.53;101077.28;1941687;73;21203;-52
2021/06/04 07:31:24;;;;;;;2.83;0.72;;;;;;;23.24;48.51;101080.34;1932077;73;21090;-53
2021/06/04 07:33:55;;;;;;;0.80;0.65;;;;;;;23.26;48.46;101085.59;1936805;73;21070;-53
2021/06/04 07:36:29;;;;;;;3.27;0.80;;;;;;;23.26;48.46;101074.84;1940934;73;21129;-54
2021/06/04 07:38:58;;;;;;;2.15;0.60;;;;;;;23.28;48.44;101083.62;1931383;73;21050;-53
2021/06/04 07:41:28;;;;;;;1.90;0.70;;;;;;;23.27;48.42;101086.77;1937675;73;21055;-52
2021/06/04 07:43:56;;;;;;;2.55;0.72;;;;;;;23.29;48.49;101085.30;1922134;73;21129;-52
2021/06/04 07:46:26;;;;;;;2.20;0.70;;;;;;;23.30;48.43;101089.20;1914679;73;21144;-54
2021/06/04 07:48:54;;;;;;;1.80;0.60;;;;;;;23.30;48.42;101078.95;1928567;73;21159;-52
2021/06/04 07:51:28;;;;;;;0.90;0.60;;;;;;;23.31;48.42;101086.89;1944041;73;21066;-53
2021/06/04 07:53:56;;;;;;;1.05;0.42;;;;;;;23.31;48.42;101098.98;1923218;73;21191;-53
2021/06/04 07:56:25;;;;;;;1.30;0.50;;;;;;;23.31;48.42;101092.26;1926593;73;21063;-53
2021/06/04 07:58:54;;;;;;;3.37;0.75;;;;;;;23.32;48.39;101097.98;1937647;73;21067;-52
2021/06/04 08:01:22;;;;;;;1.52;0.50;;;;;;;23.33;48.49;101093.44;1935633;73;21051;-53
2021/06/04 08:03:50;;;;;;;0.78;0.60;;;;;;;23.33;48.48;101093.44;1944174;73;21195;-54
2021/06/04 08:06:21;;;;;;;0.90;0.50;;;;;;;23.34;48.51;101092.47;1918411;73;21141;-53
2021/06/04 08:08:53;;;;;;;1.52;0.65;;;;;;;23.35;48.53;101091.97;1938866;73;21058;-53
2021/06/04 08:11:27;;;;;;;1.75;0.70;;;;;;;23.35;48.52;101092.84;1939381;72;21189;-54
2021/06/04 08:14:00;;;;;;;0.90;0.60;;;;;;;23.36;48.52;101091.84;1931518;73;21062;-53
2021/06/04 08:16:29;;;;;;;2.92;0.65;;;;;;;23.38;48.57;101093.89;1942756;73;21103;-53
2021/06/04 08:18:57;;;;;;;0.90;0.70;;;;;;;23.38;48.57;101097.09;1938970;73;21055;-53
2021/06/04 08:21:28;;;;;;;2.25;0.60;;;;;;;23.39;48.62;101088.90;1920139;73;21075;-56
2021/06/04 08:23:56;;;;;;;1.25;0.70;;;;;;;23.39;48.64;101090.73;1939378;73;21127;-53
2021/06/04 08:26:28;;;;;;;1.52;0.70;;;;;;;23.40;48.67;101090.58;1941926;73;21066;-53
2021/06/04 08:28:56;;;;;;;2.50;0.60;;;;;;;23.41;48.70;101092.80;1930820;73;21071;-53
2021/06/04 08:31:25;;;;;;;1.20;0.70;;;;;;;23.40;48.74;101097.30;1942033;72;21086;-53
2021/06/04 08:33:53;;;;;;;1.95;0.80;;;;;;;23.40;48.73;101099.98;1940855;73;21059;-53
2021/06/04 08:36:24;;;;;;;2.75;0.70;;;;;;;23.40;48.75;101099.14;1940948;73;21050;-52
2021/06/04 08:38:56;;;;;;;0.82;0.50;;;;;;;23.40;48.75;101097.80;1946881;73;21084;-53
2021/06/04 08:41:43;;;;;;;5.15;0.70;;;;;;;23.39;48.78;101102.33;1918214;73;21090;-52
2021/06/04 08:44:26;;;;;;;2.20;0.60;;;;;;;23.40;48.81;101100.48;1924876;73;21132;-53
2021/06/04 08:47:03;;;;;;;1.10;0.70;;;;;;;23.39;48.86;101102.33;1878881;74;21110;-53
2021/06/04 08:49:33;;;;;;;1.80;0.60;;;;;;;23.39;48.90;101109.05;1939200;73;21071;-52
2021/06/04 08:52:30;;;;;;;2.02;0.70;;;;;;;23.38;48.93;101103.80;1932954;73;21070;-54
2021/06/04 08:55:04;;;;;;;2.47;0.60;;;;;;;23.36;49.01;101110.66;1929934;73;21368;-53
2021/06/04 08:57:44;;;;;;;1.00;0.50;;;;;;;23.34;49.07;101115.31;1932755;73;21153;-53
2021/06/04 09:00:18;;;;;;;0.53;0.50;;;;;;;23.31;49.11;101114.22;1948419;73;21145;-54
2021/06/04 09:02:52;;;;;;;3.40;0.70;;;;;;;23.29;49.15;101108.14;1941253;72;21094;-53
2021/06/04 09:05:38;;;;;;;0.90;0.60;;;;;;;23.26;49.22;101103.05;1946186;73;21103;-53
2021/06/04 09:08:08;;;;;;;2.08;0.70;;;;;;;23.24;49.30;101107.68;1897702;73;21114;-54
2021/06/04 09:10:45;;;;;;;2.12;0.80;;;;;;;23.20;49.36;101107.59;1937783;73;21094;-53
2021/06/04 09:13:16;;;;;;;2.37;0.80;;;;;;;23.17;49.49;101106.54;1935056;73;21070;-53
2021/06/04 09:15:46;;;;;;;1.30;0.60;;;;;;;23.15;49.63;101110.70;1926215;73;21131;-53
2021/06/04 09:18:20;;;;;;;0.90;0.62;;;;;;;23.11;49.77;101103.86;1926435;73;21070;-54
2021/06/04 09:21:00;;;;;;;4.10;0.60;;;;;;;23.09;49.90;101110.73;1942283;73;21080;-53
2021/06/04 09:23:43;;;;;;;1.07;0.70;;;;;;;23.07;50.06;101114.52;1918364;74;21633;-51
2021/06/04 09:26:14;;;;;;;3.15;0.70;;;;;;;23.04;50.11;101104.91;1948835;73;21058;-54
2021/06/04 09:28:51;;;;;;;2.27;0.45;;;;;;;23.04;50.22;101099.53;1938181;73;21066;-53
2021/06/04 09:31:24;;;;;;;1.65;0.40;;;;;;;23.02;50.38;101103.28;1927836;73;21234;-53
2021/06/04 09:33:55;;;;;;;1.50;0.50;;;;;;;23.01;50.49;101098.41;1929121;73;21071;-54
2021/06/04 09:36:26;;;;;;;2.65;0.45;;;;;;;22.99;50.55;101093.66;1934171;73;21149;-53
2021/06/04 09:39:06;;;;;;;1.02;0.50;;;;;;;22.98;50.57;101099.16;1927730;73;21146;-53
2021/06/04 09:41:47;;;;;;;1.80;0.50;;;;;;;22.96;50.57;101091.73;1912538;74;21060;-55
2021/06/04 09:44:21;;;;;;;0.82;0.50;;;;;;;22.94;50.52;101088.70;1925623;74;21067;-53
2021/06/04 09:47:01;;;;;;;1.35;0.50;;;;;;;22.92;50.54;101092.48;1919198;73;21164;-54
2021/06/04 09:49:32;;;;;;;1.30;0.50;;;;;;;22.90;50.54;101089.09;1940414;73;21186;-53
2021/06/04 09:52:35;;;;;;;2.45;0.55;;;;;;;22.88;50.55;101100.45;1928696;73;21156;-53
2021/06/04 09:55:06;;;;;;;2.37;0.50;;;;;;;22.85;50.58;101087.28;1935671;73;21086;-54
2021/06/04 09:57:35;;;;;;;1.00;0.42;;;;;;;22.84;50.61;101096.34;1941922;73;21291;-53
2021/06/04 10:00:18;;;;;;;1.05;0.42;;;;;;;22.80;50.70;101097.09;1912596;74;21078;-54
2021/06/04 10:02:47;;;;;;;0.90;0.50;;;;;;;22.79;50.80;101094.52;1944288;73;21136;-54
2021/06/04 10:05:20;;;;;;;0.62;0.55;;;;;;;22.77;50.84;101092.47;1943097;73;21141;-54
2021/06/04 10:07:51;;;;;;;0.60;0.40;;;;;;;22.74;50.92;101089.06;1954218;73;21063;-53
2021/06/04 10:10:28;;;;;;;0.60;0.60;;;;;;;22.74;50.99;101093.56;1926754;73;21074;-56
2021/06/04 10:13:00;;;;;;;0.60;0.40;;;;;;;22.73;51.08;101102.11;1944078;73;21508;-54
2021/06/04 10:15:38;;;;;;;1.27;0.40;;;;;;;22.72;51.11;101101.77;1946048;73;21051;-53
2021/06/04 10:18:33;;;;;;;1.10;0.50;;;;;;;22.71;51.12;101087.97;1915005;73;21243;-53
2021/06/04 10:21:16;;;;;;;0.70;0.40;;;;;;;22.70;51.10;101085.41;1888841;73;21150;-54
2021/06/04 10:23:47;;;;;;;0.78;0.50;;;;;;;22.68;51.08;101084.20;1921637;73;21532;-53
2021/06/04 10:26:27;;;;;;;0.62;0.50;;;;;;;22.67;51.09;101089.22;1915286;73;21161;-54
2021/06/04 10:28:57;;;;;;;0.37;0.37;;;;;;;22.66;51.09;101079.45;1938445;74;21125;-53
2021/06/04 10:31:40;;;;;;;1.52;0.40;;;;;;;22.65;51.17;101083.14;1938080;73;21074;-50
2021/06/04 10:34:33;;;;;;;0.53;0.42;;;;;;;22.66;51.36;101085.32;1938816;74;21197;-54
2021/06/04 10:37:02;;;;;;;0.40;0.30;;;;;;;22.67;51.63;101082.52;1931876;73;21086;-54
2021/06/04 10:39:42;;;;;;;0.78;0.40;;;;;;;22.68;51.60;101088.72;1912018;74;21066;-55
2021/06/04 10:42:22;;;;;;;1.20;0.35;;;;;;;22.69;51.91;101089.94;1943564;73;21184;-54
2021/06/04 10:45:15;;;;;;;0.98;0.40;;;;;;;22.70;52.24;101083.60;1920096;73;21191;-54
2021/06/04 10:47:58;;;;;;;2.00;1.10;;;;;;;22.71;52.10;101081.27;1924392;73;21070;-53
2021/06/04 10:50:31;;;;;;;0.40;0.40;;;;;;;22.73;51.98;101084.66;1929399;73;21078;-54
2021/06/04 10:53:02;;;;;;;1.47;0.42;;;;;;;22.75;51.90;101088.06;1912279;73;21071;-54
2021/06/04 10:55:39;;;;;;;4.25;0.50;;;;;;;22.75;51.96;101084.04;1914241;73;21114;-54
2021/06/04 10:58:12;;;;;;;1.75;0.40;;;;;;;22.75;52.02;101082.70;1928280;73;21064;-54
2021/06/04 11:00:58;;;;;;;1.05;0.40;;;;;;;22.77;52.05;101102.70;1917034;74;21114;-53
2021/06/04 11:03:41;;;;;;;0.65;0.40;;;;;;;22.78;52.34;101086.97;1919088;73;21067;-54
2021/06/04 11:06:17;;;;;;;0.98;0.50;;;;;;;22.80;52.55;101093.06;1939724;73;21132;-54
2021/06/04 11:08:57;;;;;;;1.80;0.68;;;;;;;22.82;52.29;101099.14;1937961;73;21382;-54
2021/06/04 11:11:51;;;;;;;4.40;0.40;;;;;;;22.83;52.16;101090.09;1943715;74;21660;-56
2021/06/04 11:14:45;;;;;;;0.40;0.40;;;;;;;22.85;52.07;101099.36;1911359;74;21121;-54
2021/06/04 11:17:36;;;;;;;0.78;0.50;;;;;;;22.87;52.15;101102.77;1926215;73;21155;-53
2021/06/04 11:20:13;;;;;;;1.25;0.50;;;;;;;22.88;52.19;101111.19;1941097;72;21078;-56
2021/06/04 11:22:59;;;;;;;0.72;0.50;;;;;;;22.89;52.25;101109.72;1945102;73;21086;-56
2021/06/04 11:25:36;;;;;;;1.00;0.50;;;;;;;22.90;52.14;101114.59;1924428;73;21066;-51
2021/06/04 11:28:12;;;;;;;1.07;0.40;;;;;;;22.91;52.10;101110.94;1946805;73;21123;-51
2021/06/04 11:30:41;;;;;;;0.50;0.50;;;;;;;22.91;52.08;101114.47;1943114;72;21122;-53
2021/06/04 11:33:20;;;;;;;1.25;0.60;;;;;;;22.94;52.00;101119.59;1913250;73;21107;-54
2021/06/04 11:35:57;;;;;;;2.70;0.90;;;;;;;22.95;51.94;101119.09;1918414;73;21138;-54
2021/06/04 11:38:44;;;;;;;2.10;0.60;;;;;;;22.95;51.83;101115.06;1933226;73;21160;-54
2021/06/04 11:41:21;;;;;;;0.95;0.57;;;;;;;22.96;51.76;101116.74;1930902;73;21121;-54
2021/06/04 11:43:52;;;;;;;1.85;0.50;;;;;;;22.95;51.66;101115.06;1943609;73;21113;-54
2021/06/04 11:46:31;;;;;;;4.20;0.50;;;;;;;22.97;51.60;101119.80;1932343;73;21154;-53
2021/06/04 11:49:05;;;;;;;2.50;0.60;;;;;;;22.98;51.52;101120.17;1945349;73;21478;-55
2021/06/04 11:51:47;;;;;;;8.23;0.80;;;;;;;22.98;51.44;101126.89;1920725;73;21177;-54